Temp: 6.5°C   Baro: 993.4mb
  Wind: 4.9mph   Dir: WSW (252°)
  Rain: 0.2mm (0.0mm/hr)
  Solar: 272W/m2  Hum: 84%
 
Bath Spa Weather Station Historical Data
Daily Summary for January 14, 2021 Units:  English    Metric   Both
Daily Weekly Monthly Yearly Custom
  High: Low: Average:
Temperature: 49.4 °F 37 °F 45.6 °F
Dew Point: 49.3 °F 34.3 °F 44.6 °F
Humidity: 97% 86% 93%
Wind Speed: 10.6mph 0mph 4.4mph
Wind Gust: 18mph - -
Wind- - SSW
Pressure: 30.30 in 29.91 in -
Precipitation: 0.20 in    
Historical Graphs
 
 
Tabular Data for January 14, 2021
Time Temperature Dew Point Pressure Wind Wind Speed Wind Gust Humidity Rainfall Rate (Hourly) solar
00:04 49.1 °F 48.6 °F 30.04 in WNW 8.3 mph 14 mph 95% 0.00 in 0 W/m2
00:09 49 °F 48.5 °F 30.04 in WNW 6.8 mph 14 mph 95% 0.00 in 0 W/m2
00:14 48.9 °F 48.4 °F 30.04 in West 5.4 mph 10 mph 95% 0.00 in 0 W/m2
00:19 48.9 °F 48.4 °F 30.04 in West 8.8 mph 16 mph 95% 0.00 in 0 W/m2
00:24 48.9 °F 48.4 °F 30.04 in WNW 6.6 mph 16 mph 95% 0.00 in 0 W/m2
00:29 48.9 °F 48.4 °F 30.04 in WNW 7 mph 12 mph 95% 0.00 in 0 W/m2
00:34 48.9 °F 48.4 °F 30.03 in WNW 5.2 mph 11 mph 95% 0.00 in 0 W/m2
00:39 48.8 °F 48.3 °F 30.03 in West 3.6 mph 8 mph 95% 0.00 in 0 W/m2
00:44 48.8 °F 48.3 °F 30.03 in West 4 mph 8 mph 95% 0.00 in 0 W/m2
00:49 48.8 °F 48.3 °F 30.03 in West 3.3 mph 8 mph 95% 0.00 in 0 W/m2
00:54 48.7 °F 48.2 °F 30.03 in West 4 mph 6 mph 95% 0.00 in 0 W/m2
00:59 48.7 °F 48.2 °F 30.03 in West 3.7 mph 9 mph 95% 0.00 in 0 W/m2
01:04 48.7 °F 48.2 °F 30.03 in West 3.2 mph 7 mph 95% 0.00 in 0 W/m2
01:09 48.7 °F 48.3 °F 30.02 in West 3.6 mph 9 mph 95.2% 0.00 in 0 W/m2
01:14 48.7 °F 48.6 °F 30.02 in West 2.8 mph 8 mph 96% 0.00 in 0 W/m2
01:19 48.7 °F 48.6 °F 30.02 in West 4.3 mph 7 mph 96% 0.00 in 0 W/m2
01:24 48.7 °F 48.6 °F 30.02 in WNW 2.6 mph 7 mph 96% 0.00 in 0 W/m2
01:29 48.7 °F 48.6 °F 30.02 in WNW 1.7 mph 5 mph 96% 0.00 in 0 W/m2
01:34 48.7 °F 48.6 °F 30.01 in West 3.6 mph 7 mph 96% 0.01 in 0 W/m2
01:39 48.7 °F 48.6 °F 30.01 in West 3 mph 6 mph 96% 0.01 in 0 W/m2
01:44 48.7 °F 48.6 °F 30.01 in West 2.4 mph 6 mph 96% 0.01 in 0 W/m2
01:49 48.7 °F 48.6 °F 30.01 in West 2.5 mph 7 mph 96% 0.01 in 0 W/m2
01:54 48.7 °F 48.6 °F 30.01 in West 2.1 mph 5 mph 96% 0.01 in 0 W/m2
01:59 48.7 °F 48.6 °F 30.01 in West 3.4 mph 6 mph 96% 0.01 in 0 W/m2
02:04 48.7 °F 48.6 °F 30.00 in West 2.1 mph 7 mph 96% 0.01 in 0 W/m2
02:09 48.7 °F 48.6 °F 30.00 in West 2.1 mph 7 mph 96% 0.01 in 0 W/m2
02:14 48.7 °F 48.6 °F 30.00 in West 2.9 mph 5 mph 96% 0.01 in 0 W/m2
02:19 48.7 °F 48.6 °F 30.00 in West 2.1 mph 5 mph 96% 0.01 in 0 W/m2
02:24 48.7 °F 48.6 °F 30.00 in West 2.8 mph 6 mph 96% 0.01 in 0 W/m2
02:29 48.7 °F 48.6 °F 29.99 in West 2.4 mph 7 mph 96% 0.01 in 0 W/m2
02:34 48.7 °F 48.6 °F 29.99 in West 2.4 mph 5 mph 96% 0.00 in 0 W/m2
02:39 48.8 °F 48.6 °F 29.99 in West 2.7 mph 6 mph 96% 0.00 in 0 W/m2
02:44 48.9 °F 48.7 °F 29.99 in WSW 2.9 mph 7 mph 96% 0.00 in 0 W/m2
02:49 48.9 °F 48.7 °F 29.99 in WSW 3.7 mph 7 mph 96% 0.01 in 0 W/m2
02:54 48.9 °F 48.7 °F 29.98 in WSW 3 mph 7 mph 96% 0.01 in 0 W/m2
02:59 48.9 °F 48.7 °F 29.98 in WSW 1.9 mph 7 mph 96% 0.01 in 0 W/m2
03:04 48.9 °F 48.7 °F 29.98 in WSW 1.6 mph 7 mph 96% 0.01 in 0 W/m2
03:09 48.9 °F 48.7 °F 29.98 in WSW 2.9 mph 6 mph 96% 0.01 in 0 W/m2
03:14 48.9 °F 48.7 °F 29.98 in West 3.3 mph 7 mph 96% 0.01 in 0 W/m2
03:19 48.8 °F 48.7 °F 29.98 in WSW 3.4 mph 7 mph 96% 0.01 in 0 W/m2
03:24 48.8 °F 48.7 °F 29.98 in WSW 2.5 mph 6 mph 96.2% 0.01 in 0 W/m2
03:29 48.8 °F 48.7 °F 29.98 in WSW 2.6 mph 7 mph 96.2% 0.01 in 0 W/m2
03:34 48.9 °F 48.8 °F 29.98 in WSW 3.3 mph 6 mph 96.6% 0.01 in 0 W/m2
03:39 48.9 °F 48.8 °F 29.97 in WSW 2.3 mph 8 mph 96.6% 0.01 in 0 W/m2
03:44 48.9 °F 48.8 °F 29.97 in WSW 3.7 mph 8 mph 96.8% 0.01 in 0 W/m2
03:49 48.9 °F 48.9 °F 29.97 in West 3.6 mph 10 mph 96.8% 0.01 in 0 W/m2
03:54 48.9 °F 48.8 °F 29.97 in West 3.3 mph 6 mph 96.6% 0.01 in 0 W/m2
03:59 48.9 °F 48.9 °F 29.97 in West 2.8 mph 7 mph 96.8% 0.01 in 0 W/m2
04:04 48.9 °F 48.9 °F 29.96 in West 1.6 mph 5 mph 97% 0.01 in 0 W/m2
04:09 48.9 °F 48.9 °F 29.96 in West 1.4 mph 5 mph 96.8% 0.01 in 0 W/m2
04:14 48.9 °F 48.9 °F 29.96 in West 1.9 mph 5 mph 96.8% 0.01 in 0 W/m2
04:19 48.9 °F 48.7 °F 29.96 in West 2.7 mph 6 mph 96.2% 0.01 in 0 W/m2
04:24 48.9 °F 48.9 °F 29.96 in West 3 mph 6 mph 97% 0.01 in 0 W/m2
04:29 48.9 °F 48.9 °F 29.96 in WSW 1.7 mph 6 mph 96.8% 0.01 in 0 W/m2
04:34 49 °F 49 °F 29.96 in WSW 2.8 mph 5 mph 97% 0.01 in 0 W/m2
04:39 49.1 °F 49.1 °F 29.95 in WSW 2.3 mph 5 mph 97% 0.01 in 0 W/m2
04:44 49.1 °F 49.1 °F 29.95 in WSW 2.8 mph 6 mph 97% 0.02 in 0 W/m2
04:49 49.1 °F 49.1 °F 29.95 in WSW 3 mph 6 mph 97% 0.02 in 0 W/m2
04:54 49.1 °F 49.1 °F 29.95 in WSW 2.1 mph 5 mph 97% 0.02 in 0 W/m2
04:59 49.1 °F 49.1 °F 29.94 in WSW 3 mph 6 mph 97% 0.01 in 0 W/m2
05:04 49.1 °F 49.1 °F 29.94 in WSW 2.5 mph 5 mph 97% 0.01 in 0 W/m2
05:08 49.2 °F 49.2 °F 29.94 in WSW 2.2 mph 5 mph 97% 0.01 in 0 W/m2
05:14 49.1 °F 49.1 °F 29.93 in WSW 2.6 mph 5 mph 97% 0.02 in 0 W/m2
05:19 49.2 °F 49.2 °F 29.93 in WSW 2.3 mph 6 mph 97% 0.02 in 0 W/m2
05:24 49.3 °F 49.3 °F 29.93 in WSW 3.2 mph 6 mph 97% 0.02 in 0 W/m2
05:29 49.2 °F 49.2 °F 29.93 in WSW 3.7 mph 8 mph 97% 0.02 in 0 W/m2
05:34 49.3 °F 49.3 °F 29.93 in WSW 2.1 mph 6 mph 97% 0.02 in 0 W/m2
05:39 49.2 °F 49.2 °F 29.93 in WSW 2.5 mph 6 mph 97% 0.02 in 0 W/m2
05:44 49.3 °F 49.3 °F 29.93 in WSW 3.5 mph 6 mph 97% 0.02 in 0 W/m2
05:49 49.3 °F 49.3 °F 29.93 in WSW 2.9 mph 6 mph 97% 0.02 in 0 W/m2
05:54 49.3 °F 49.3 °F 29.93 in WSW 2.3 mph 5 mph 97% 0.02 in 0 W/m2
05:59 49.3 °F 49.3 °F 29.92 in WSW 1.9 mph 5 mph 97% 0.02 in 0 W/m2
06:04 49.2 °F 49.2 °F 29.92 in WSW 1.7 mph 3 mph 97% 0.02 in 0 W/m2
06:09 49.3 °F 49.3 °F 29.92 in WSW 2.5 mph 5 mph 97% 0.02 in 0 W/m2
06:13 49.2 °F 49.2 °F 29.92 in WSW 1.7 mph 5 mph 97% 0.02 in 0 W/m2
06:19 49.2 °F 49.2 °F 29.92 in WSW 1.6 mph 5 mph 97% 0.02 in 0 W/m2
06:24 49.1 °F 49.1 °F 29.92 in WSW 2 mph 6 mph 97% 0.02 in 0 W/m2
06:29 49.1 °F 49.1 °F 29.91 in WSW 2 mph 4 mph 97% 0.02 in 0 W/m2
06:34 49.1 °F 49.1 °F 29.91 in WSW 2.7 mph 5 mph 97% 0.02 in 0 W/m2
06:39 49.1 °F 49.1 °F 29.91 in West 4.8 mph 8 mph 97% 0.02 in 0 W/m2
06:44 49.1 °F 49.1 °F 29.91 in WNW 5.5 mph 9 mph 97% 0.02 in 0 W/m2
06:49 49.1 °F 49.1 °F 29.91 in West 6.6 mph 17 mph 97% 0.02 in 0 W/m2
06:54 49.1 °F 49.1 °F 29.91 in WNW 4.7 mph 13 mph 97% 0.02 in 0 W/m2
06:59 48.9 °F 48.9 °F 29.91 in WNW 4.5 mph 13 mph 97% 0.02 in 0 W/m2
07:04 48.9 °F 48.9 °F 29.91 in WNW 9.1 mph 12 mph 97% 0.02 in 0 W/m2
07:08 48.8 °F 48.8 °F 29.91 in WNW 4.4 mph 10 mph 97% 0.02 in 0 W/m2
07:14 48.7 °F 48.7 °F 29.91 in WNW 4 mph 8 mph 97% 0.02 in 0 W/m2
07:19 48.7 °F 48.7 °F 29.91 in WNW 5.2 mph 8 mph 97% 0.02 in 0 W/m2
07:24 48.7 °F 48.7 °F 29.91 in WNW 4.1 mph 9 mph 97% 0.02 in 0 W/m2
07:29 48.7 °F 48.7 °F 29.91 in WNW 4 mph 7 mph 97% 0.01 in 0 W/m2
07:34 48.6 °F 48.6 °F 29.91 in WNW 3.6 mph 7 mph 97% 0.01 in 0 W/m2
07:39 48.6 °F 48.6 °F 29.91 in WNW 3.5 mph 6 mph 97% 0.01 in 0 W/m2
07:44 48.6 °F 48.6 °F 29.91 in WNW 3.7 mph 6 mph 97% 0.01 in 0 W/m2
07:49 48.6 °F 48.6 °F 29.91 in WNW 3.1 mph 6 mph 97% 0.01 in 0 W/m2
07:54 48.6 °F 48.6 °F 29.91 in NW 3.8 mph 8 mph 97% 0.00 in 0 W/m2
07:59 48.6 °F 48.6 °F 29.92 in WNW 5 mph 10 mph 97% 0.00 in 0 W/m2
08:04 48.6 °F 48.6 °F 29.91 in WNW 4.5 mph 9 mph 97% 0.00 in 0 W/m2
08:09 48.6 °F 48.6 °F 29.92 in NW 4.8 mph 11 mph 97% 0.00 in 0 W/m2
08:14 48.6 °F 48.6 °F 29.92 in WNW 4.2 mph 9 mph 97% 0.01 in 0 W/m2
08:19 48.6 °F 48.6 °F 29.92 in WNW 3.2 mph 9 mph 97% 0.01 in 0 W/m2
08:24 48.6 °F 48.6 °F 29.92 in WNW 4.3 mph 7 mph 97% 0.01 in 0 W/m2
08:29 48.6 °F 48.6 °F 29.92 in WNW 4.9 mph 9 mph 97% 0.01 in 9 W/m2
08:34 48.6 °F 48.6 °F 29.92 in West 5.4 mph 8 mph 97% 0.02 in 16 W/m2
08:39 48.6 °F 48.6 °F 29.92 in WNW 5.4 mph 9 mph 97% 0.02 in 21 W/m2
08:44 48.6 °F 48.6 °F 29.92 in WNW 5.4 mph 8 mph 97% 0.02 in 28 W/m2
08:49 48.7 °F 48.7 °F 29.92 in WNW 4.8 mph 10 mph 97% 0.02 in 25 W/m2
08:54 48.7 °F 48.7 °F 29.93 in WNW 6.3 mph 10 mph 97% 0.02 in 19 W/m2
08:59 48.7 °F 48.7 °F 29.93 in WNW 3.7 mph 11 mph 97% 0.02 in 18 W/m2
09:04 48.7 °F 48.7 °F 29.93 in WNW 4.8 mph 10 mph 97% 0.02 in 18 W/m2
09:09 48.7 °F 48.7 °F 29.93 in West 5.1 mph 10 mph 97% 0.02 in 14 W/m2
09:14 48.7 °F 48.7 °F 29.93 in WNW 5.5 mph 9 mph 97% 0.02 in 12 W/m2
09:19 48.7 °F 48.7 °F 29.93 in WNW 4.5 mph 10 mph 97% 0.02 in 16 W/m2
09:24 48.6 °F 48.6 °F 29.94 in WNW 6.2 mph 12 mph 97% 0.02 in 19 W/m2
09:29 48.6 °F 48.6 °F 29.94 in WNW 6.2 mph 12 mph 97% 0.02 in 21 W/m2
09:34 48.6 °F 48.6 °F 29.94 in WNW 5 mph 10 mph 97% 0.02 in 23 W/m2
09:39 48.6 °F 48.6 °F 29.94 in WNW 4.5 mph 7 mph 97% 0.02 in 19 W/m2
09:44 48.6 °F 48.6 °F 29.95 in WNW 4.3 mph 10 mph 97% 0.02 in 21 W/m2
09:49 48.6 °F 48.6 °F 29.95 in WNW 5.2 mph 11 mph 97% 0.03 in 21 W/m2
09:54 48.4 °F 48.4 °F 29.95 in WNW 4.7 mph 12 mph 97% 0.04 in 21 W/m2
09:58 48.4 °F 48.4 °F 29.95 in WNW 5.8 mph 10 mph 97% 0.03 in 32 W/m2
10:04 48.4 °F 48.4 °F 29.95 in WNW 5.9 mph 15 mph 97% 0.04 in 35 W/m2
10:09 48.4 °F 48.4 °F 29.96 in WNW 5.2 mph 15 mph 97% 0.04 in 33 W/m2
10:14 48.4 °F 48.4 °F 29.96 in WNW 5.6 mph 10 mph 97% 0.05 in 37 W/m2
10:19 48.3 °F 48.3 °F 29.96 in West 5.1 mph 10 mph 97% 0.05 in 39 W/m2
10:24 48.2 °F 48.2 °F 29.96 in WNW 4 mph 8 mph 97% 0.05 in 39 W/m2
10:29 48.2 °F 48.2 °F 29.96 in WNW 4.5 mph 9 mph 97% 0.06 in 42 W/m2
10:34 48.1 °F 48.1 °F 29.96 in WNW 5.5 mph 10 mph 97% 0.06 in 44 W/m2
10:39 48 °F 48 °F 29.97 in WNW 4.2 mph 9 mph 97% 0.06 in 46 W/m2
10:44 48 °F 48 °F 29.97 in WNW 5.8 mph 9 mph 96.6% 0.05 in 44 W/m2
10:54 48 °F 47.8 °F 29.97 in WNW 6.6 mph 10 mph 96% 0.04 in 46 W/m2
10:59 48 °F 47.8 °F 29.97 in WNW 4.3 mph 9 mph 96% 0.03 in 54 W/m2
11:04 48 °F 47.8 °F 29.97 in WNW 4.9 mph 7 mph 96% 0.02 in 62 W/m2
11:09 48 °F 47.8 °F 29.98 in WNW 4.7 mph 9 mph 96% 0.02 in 63 W/m2
11:14 48 °F 47.8 °F 29.98 in WNW 5.5 mph 9 mph 96% 0.02 in 63 W/m2
11:19 48 °F 47.8 °F 29.98 in WNW 4.3 mph 9 mph 96% 0.02 in 58 W/m2
11:24 48 °F 47.8 °F 29.98 in WNW 4.2 mph 8 mph 96% 0.01 in 65 W/m2
11:29 48 °F 47.8 °F 29.98 in WNW 4.5 mph 8 mph 96% 0.00 in 62 W/m2
11:34 48 °F 47.8 °F 29.98 in WNW 5.2 mph 9 mph 96% 0.00 in 60 W/m2
11:39 48 °F 47.8 °F 29.98 in NW 6.7 mph 14 mph 96% 0.00 in 88 W/m2
11:44 47.9 °F 47.8 °F 29.98 in WNW 7 mph 14 mph 96% 0.00 in 98 W/m2
11:49 48 °F 47.8 °F 29.98 in WNW 6.4 mph 13 mph 96% 0.00 in 104 W/m2
11:54 48 °F 47.6 °F 29.98 in WNW 6 mph 13 mph 95.2% 0.00 in 109 W/m2
11:59 48.2 °F 47.7 °F 29.98 in WNW 6.4 mph 11 mph 95% 0.00 in 113 W/m2
12:04 48.4 °F 47.8 °F 29.98 in WNW 6.4 mph 12 mph 94.6% 0.00 in 116 W/m2
12:09 48.4 °F 47.7 °F 29.98 in NW 5.2 mph 12 mph 94% 0.00 in 116 W/m2
12:14 48.4 °F 47.7 °F 29.98 in WNW 5.8 mph 14 mph 94% 0.00 in 109 W/m2
12:19 48.4 °F 47.3 °F 29.98 in NW 7.8 mph 15 mph 93% 0.00 in 84 W/m2
12:24 48.6 °F 47.4 °F 29.98 in WNW 5.7 mph 13 mph 92.4% 0.00 in 56 W/m2
12:29 48.6 °F 47.3 °F 29.98 in NW 6.6 mph 14 mph 92% 0.00 in 49 W/m2
12:34 48.6 °F 47.1 °F 29.98 in NW 7.2 mph 13 mph 91.4% 0.00 in 54 W/m2
12:39 48.6 °F 46.8 °F 29.98 in WNW 9.6 mph 18 mph 90.8% 0.00 in 63 W/m2
12:44 48.6 °F 46.6 °F 29.98 in WNW 8.6 mph 16 mph 90% 0.00 in 72 W/m2
12:49 48.7 °F 46.6 °F 29.98 in NW 7.4 mph 16 mph 89% 0.00 in 97 W/m2
12:54 48.9 °F 46.6 °F 29.98 in West 5.3 mph 13 mph 88.6% 0.00 in 90 W/m2
12:59 48.9 °F 46.4 °F 29.99 in NW 9 mph 14 mph 88% 0.00 in 69 W/m2
13:04 49 °F 46.4 °F 29.99 in NW 10.6 mph 17 mph 87.8% 0.00 in 58 W/m2
13:09 49.3 °F 46.3 °F 29.99 in WNW 8.8 mph 17 mph 86.6% 0.00 in 54 W/m2
13:14 49.3 °F 46.2 °F 29.99 in WNW 5.6 mph 13 mph 86% 0.00 in 47 W/m2
13:19 49.3 °F 46.2 °F 30.00 in NW 5.7 mph 14 mph 86% 0.00 in 63 W/m2
13:24 49.3 °F 46.2 °F 30.00 in NW 5.9 mph 16 mph 86% 0.00 in 56 W/m2
13:29 49.3 °F 46.2 °F 30.00 in WNW 8 mph 15 mph 86% 0.00 in 58 W/m2
13:34 49.4 °F 46.3 °F 30.00 in NNW 9.3 mph 17 mph 86% 0.00 in 63 W/m2
13:39 49.3 °F 46.2 °F 30.01 in North 9.8 mph 17 mph 86% 0.00 in 47 W/m2
13:44 49.1 °F 46 °F 30.01 in North 7.4 mph 13 mph 86.2% 0.00 in 63 W/m2
13:49 48.7 °F 46 °F 30.01 in NNW 7 mph 14 mph 87.4% 0.00 in 79 W/m2
13:54 48.4 °F 46 °F 30.01 in NNW 6.4 mph 11 mph 88.4% 0.00 in 144 W/m2
13:59 48.2 °F 46 °F 30.01 in North 6.3 mph 11 mph 89% 0.00 in 158 W/m2
14:04 48.1 °F 46.1 °F 30.01 in NW 8 mph 14 mph 90% 0.00 in 84 W/m2
14:09 48 °F 46 °F 30.01 in NW 5.8 mph 13 mph 89.8% 0.00 in 81 W/m2
14:14 48 °F 45.9 °F 30.01 in NNW 7.6 mph 14 mph 89% 0.00 in 56 W/m2
14:19 48 °F 45.9 °F 30.02 in NNW 6.3 mph 14 mph 89% 0.00 in 33 W/m2
14:24 47.8 °F 45.6 °F 30.02 in NNW 9.4 mph 15 mph 88.6% 0.00 in 33 W/m2
14:29 47.7 °F 45.1 °F 30.02 in North 7.1 mph 17 mph 88% 0.00 in 33 W/m2
14:34 47.5 °F 45.1 °F 30.03 in NNW 6.9 mph 12 mph 88.4% 0.00 in 19 W/m2
14:39 47.3 °F 45.1 °F 30.03 in NW 9.1 mph 17 mph 89% 0.00 in 14 W/m2
14:44 47.2 °F 45 °F 30.03 in NNW 6.6 mph 11 mph 89% 0.00 in 18 W/m2
14:53 47.1 °F 45 °F 30.03 in North 6.7 mph 15 mph 89% 0.00 in 14 W/m2
14:59 46.9 °F 44.8 °F 30.04 in NNW 6 mph 14 mph 89% 0.00 in 18 W/m2
15:04 46.8 °F 44.7 °F 30.04 in North 6.1 mph 11 mph 89% 0.00 in 18 W/m2
15:09 46.8 °F 44.7 °F 30.04 in NNW 4.7 mph 11 mph 89.4% 0.00 in 49 W/m2
15:14 46.6 °F 44.8 °F 30.04 in NNW 5.4 mph 10 mph 90% 0.00 in 42 W/m2
15:19 46.6 °F 44.8 °F 30.04 in NNW 5.8 mph 11 mph 90% 0.00 in 33 W/m2
15:24 46.6 °F 44.8 °F 30.05 in NW 4.6 mph 11 mph 90% 0.00 in 25 W/m2
15:29 46.4 °F 44.6 °F 30.05 in NNW 3.2 mph 10 mph 90% 0.00 in 21 W/m2
15:34 46.2 °F 44.4 °F 30.05 in NNW 4.1 mph 10 mph 90% 0.00 in 30 W/m2
15:39 46.1 °F 44.3 °F 30.06 in NNW 3.7 mph 9 mph 90% 0.00 in 28 W/m2
15:44 46.1 °F 44.3 °F 30.06 in North 4.1 mph 11 mph 90% 0.00 in 25 W/m2
15:49 46 °F 44.2 °F 30.06 in NW 4.5 mph 11 mph 90% 0.00 in 16 W/m2
15:54 46 °F 44.2 °F 30.07 in NNW 4.9 mph 8 mph 90.4% 0.00 in 11 W/m2
15:59 45.9 °F 44.2 °F 30.07 in NNE 4.8 mph 10 mph 91% 0.00 in 7 W/m2
16:04 45.6 °F 44 °F 30.07 in NE 7 mph 12 mph 91% 0.00 in 7 W/m2
16:09 45 °F 43.3 °F 30.07 in North 6.6 mph 13 mph 91% 0.00 in 7 W/m2
16:14 44.5 °F 42.9 °F 30.08 in NNE 5.6 mph 10 mph 91% 0.00 in 5 W/m2
16:19 44.4 °F 42.8 °F 30.08 in NNE 3.7 mph 9 mph 91% 0.00 in 5 W/m2
16:24 44.2 °F 42.9 °F 30.08 in North 6.8 mph 13 mph 91.8% 0.01 in 0 W/m2
16:29 44 °F 42.7 °F 30.09 in North 8.8 mph 15 mph 92% 0.01 in 0 W/m2
16:34 43.7 °F 42.4 °F 30.09 in NNE 4.1 mph 11 mph 92% 0.01 in 0 W/m2
16:39 43.6 °F 42.3 °F 30.09 in NNE 4.6 mph 8 mph 92% 0.01 in 0 W/m2
16:44 43.3 °F 42.1 °F 30.09 in North 7.4 mph 11 mph 92% 0.01 in 0 W/m2
16:49 43.2 °F 41.9 °F 30.09 in NNE 3 mph 9 mph 92% 0.02 in 0 W/m2
16:54 43.2 °F 41.9 °F 30.10 in NNE 5.5 mph 9 mph 92% 0.02 in 0 W/m2
16:59 43.1 °F 41.8 °F 30.10 in NNE 5.3 mph 10 mph 92% 0.02 in 0 W/m2
17:04 43 °F 41.7 °F 30.10 in NE 4.9 mph 11 mph 92% 0.03 in 0 W/m2
17:09 42.9 °F 41.6 °F 30.10 in NNE 3.2 mph 7 mph 92% 0.03 in 0 W/m2
17:14 43 °F 41.7 °F 30.11 in NE 3.5 mph 10 mph 92% 0.03 in 0 W/m2
17:19 42.7 °F 41.5 °F 30.11 in NNE 3.7 mph 9 mph 92% 0.03 in 0 W/m2
17:24 42.6 °F 41.6 °F 30.11 in NNE 0.9 mph 5 mph 92.6% 0.02 in 0 W/m2
17:29 42.6 °F 41.6 °F 30.11 in NNE 2.5 mph 9 mph 92.8% 0.03 in 0 W/m2
17:34 42.5 °F 41.6 °F 30.12 in NNE 4.2 mph 7 mph 93% 0.03 in 0 W/m2
17:39 42.3 °F 41.2 °F 30.12 in NE 4.3 mph 12 mph 92.4% 0.03 in 0 W/m2
17:44 42 °F 40.7 °F 30.12 in NNE 3.5 mph 11 mph 92% 0.03 in 0 W/m2
17:49 41.7 °F 40.5 °F 30.13 in NNE 2.9 mph 11 mph 92% 0.03 in 0 W/m2
17:54 41.6 °F 40.4 °F 30.13 in NE 5.7 mph 13 mph 92% 0.02 in 0 W/m2
18:04 41.4 °F 40.2 °F 30.14 in NNE 5.4 mph 9 mph 92% 0.02 in 0 W/m2
18:09 41.4 °F 40.1 °F 30.14 in NNE 6.8 mph 10 mph 92% 0.01 in 0 W/m2
18:14 41.2 °F 39.9 °F 30.15 in NNE 4.5 mph 9 mph 92% 0.01 in 0 W/m2
18:19 41.2 °F 39.9 °F 30.15 in NNE 2.8 mph 9 mph 92% 0.01 in 0 W/m2
18:24 41 °F 39.7 °F 30.15 in NE 7.2 mph 18 mph 92% 0.01 in 0 W/m2
18:29 40.6 °F 39.4 °F 30.15 in NNE 6.8 mph 16 mph 92% 0.01 in 0 W/m2
18:34 40.5 °F 39.1 °F 30.16 in NNE 8 mph 17 mph 91.4% 0.00 in 0 W/m2
18:39 40.4 °F 38.9 °F 30.16 in NNE 7.1 mph 15 mph 91% 0.00 in 0 W/m2
18:44 40.2 °F 38.7 °F 30.16 in NNE 6.3 mph 15 mph 91% 0.00 in 0 W/m2
18:49 39.9 °F 38.5 °F 30.16 in NE 7.2 mph 15 mph 91% 0.00 in 0 W/m2
18:54 39.9 °F 38.5 °F 30.16 in NNE 6.1 mph 15 mph 91% 0.00 in 0 W/m2
18:59 39.7 °F 38.3 °F 30.17 in NNE 3.6 mph 11 mph 91% 0.00 in 0 W/m2
19:04 39.7 °F 38.3 °F 30.17 in North 6.2 mph 14 mph 91% 0.00 in 0 W/m2
19:09 39.6 °F 38.1 °F 30.17 in NNE 4.9 mph 12 mph 91% 0.00 in 0 W/m2
19:14 39.5 °F 38 °F 30.18 in NNE 5.6 mph 9 mph 91% 0.00 in 0 W/m2
19:19 39.4 °F 37.9 °F 30.18 in North 4.9 mph 10 mph 91% 0.00 in 0 W/m2
19:24 39.4 °F 37.9 °F 30.18 in North 5.2 mph 10 mph 91% 0.00 in 0 W/m2
19:29 39.4 °F 37.9 °F 30.18 in NNE 5.1 mph 12 mph 91% 0.00 in 0 W/m2
19:34 39.2 °F 37.8 °F 30.18 in North 5 mph 10 mph 91% 0.00 in 0 W/m2
19:39 39.1 °F 37.7 °F 30.18 in North 7.8 mph 12 mph 91% 0.00 in 0 W/m2
19:44 39 °F 37.6 °F 30.18 in NNE 7.1 mph 12 mph 91% 0.00 in 0 W/m2
19:49 39 °F 37.6 °F 30.19 in North 5.5 mph 13 mph 91% 0.00 in 0 W/m2
19:54 39 °F 37.6 °F 30.19 in NNE 5.6 mph 10 mph 91% 0.00 in 0 W/m2
19:59 39 °F 37.6 °F 30.19 in NNW 2.7 mph 9 mph 91% 0.00 in 0 W/m2
20:04 39 °F 37.6 °F 30.19 in NNE 2.4 mph 9 mph 91% 0.00 in 0 W/m2
20:09 39 °F 37.6 °F 30.19 in North 5.1 mph 11 mph 91% 0.00 in 0 W/m2
20:14 38.8 °F 37.4 °F 30.19 in NNE 5.6 mph 11 mph 91% 0.00 in 0 W/m2
20:19 38.8 °F 37.4 °F 30.19 in NNE 4.1 mph 9 mph 91% 0.00 in 0 W/m2
20:24 38.7 °F 37.2 °F 30.20 in NNE 4.5 mph 11 mph 91% 0.00 in 0 W/m2
20:29 38.7 °F 37.2 °F 30.20 in North 1.7 mph 6 mph 91% 0.00 in 0 W/m2
20:34 38.6 °F 37 °F 30.20 in North 4.1 mph 8 mph 90.6% 0.00 in 0 W/m2
20:39 38.5 °F 36.7 °F 30.21 in NNE 4.7 mph 10 mph 90% 0.00 in 0 W/m2
20:44 38.5 °F 36.7 °F 30.21 in NE 4.8 mph 10 mph 90% 0.00 in 0 W/m2
20:49 38.4 °F 36.6 °F 30.21 in NNE 5.5 mph 11 mph 90% 0.00 in 0 W/m2
20:54 38.1 °F 36.3 °F 30.22 in North 3.2 mph 9 mph 90% 0.00 in 0 W/m2
20:59 38.1 °F 36.3 °F 30.22 in NE 6 mph 11 mph 90% 0.00 in 0 W/m2
21:04 37.9 °F 36.1 °F 30.22 in NNE 3.5 mph 7 mph 90% 0.00 in 0 W/m2
21:09 37.9 °F 36.1 °F 30.22 in NNE 2.8 mph 8 mph 90% 0.00 in 0 W/m2
21:14 37.9 °F 36.1 °F 30.22 in NNE 3.2 mph 7 mph 90% 0.00 in 0 W/m2
21:19 37.8 °F 36 °F 30.23 in North 2.7 mph 7 mph 90% 0.00 in 0 W/m2
21:24 37.8 °F 36 °F 30.22 in NE 2.9 mph 7 mph 90% 0.00 in 0 W/m2
21:29 37.8 °F 36 °F 30.23 in NE 1.9 mph 7 mph 90% 0.00 in 0 W/m2
21:34 37.8 °F 36 °F 30.23 in NNE 1.6 mph 7 mph 90% 0.00 in 0 W/m2
21:39 37.8 °F 36 °F 30.23 in NE 4.5 mph 8 mph 90% 0.00 in 0 W/m2
21:44 37.8 °F 36 °F 30.23 in NE 3.9 mph 9 mph 90% 0.00 in 0 W/m2
21:49 37.8 °F 36 °F 30.23 in NE 3.7 mph 10 mph 90% 0.00 in 0 W/m2
21:54 37.6 °F 35.8 °F 30.24 in NE 5.2 mph 10 mph 90% 0.00 in 0 W/m2
21:59 37.6 °F 35.8 °F 30.24 in NE 2.6 mph 8 mph 90% 0.00 in 0 W/m2
22:04 37.4 °F 35.4 °F 30.24 in North 4.2 mph 10 mph 89.4% 0.00 in 0 W/m2
22:09 37.2 °F 35.2 °F 30.24 in North 4.1 mph 7 mph 89% 0.00 in 0 W/m2
22:14 37.2 °F 35.2 °F 30.25 in North 3 mph 5 mph 89% 0.00 in 0 W/m2
22:19 37.3 °F 35.3 °F 30.26 in North 1.6 mph 4 mph 89% 0.00 in 0 W/m2
22:24 37.5 °F 35.5 °F 30.26 in NNE 1.8 mph 5 mph 89% 0.00 in 0 W/m2
22:29 37.6 °F 35.6 °F 30.27 in NNE 0.9 mph 4 mph 89% 0.00 in 0 W/m2
22:34 37.4 °F 35.3 °F 30.27 in NNE 5.6 mph 10 mph 88.6% 0.00 in 0 W/m2
22:39 37.2 °F 34.9 °F 30.27 in NE 2.9 mph 10 mph 88% 0.00 in 0 W/m2
22:44 37.3 °F 35 °F 30.27 in NE 2.1 mph 5 mph 88% 0.00 in 0 W/m2
22:49 37.2 °F 34.9 °F 30.28 in NNE 5 mph 10 mph 88% 0.00 in 0 W/m2
22:54 37.2 °F 34.7 °F 30.28 in NNE 2.9 mph 8 mph 87.6% 0.00 in 0 W/m2
22:59 37 °F 34.5 °F 30.28 in NNE 3.3 mph 8 mph 87.4% 0.00 in 0 W/m2
23:04 37 °F 34.3 °F 30.29 in NNE 1.5 mph 4 mph 87% 0.00 in 0 W/m2
23:09 37.2 °F 34.5 °F 30.29 in NNE 0.8 mph 7 mph 87% 0.00 in 0 W/m2
23:14 37.2 °F 34.5 °F 30.29 in NE 2 mph 9 mph 87% 0.00 in 0 W/m2
23:19 37.2 °F 34.5 °F 30.29 in ENE 4 mph 9 mph 87% 0.00 in 0 W/m2
23:24 37.2 °F 34.5 °F 30.29 in NE 2.4 mph 7 mph 87% 0.00 in 0 W/m2
23:29 37.2 °F 34.5 °F 30.29 in NE 1.3 mph 6 mph 87% 0.00 in 0 W/m2
23:34 37.2 °F 34.5 °F 30.29 in NE 1.7 mph 5 mph 87% 0.00 in 0 W/m2
23:39 37.2 °F 34.5 °F 30.29 in NE 2.3 mph 4 mph 87% 0.00 in 0 W/m2
23:44 37.2 °F 34.5 °F 30.30 in NE 2.3 mph 5 mph 87% 0.00 in 0 W/m2
23:49 37.2 °F 34.5 °F 30.30 in NE 0.8 mph 3 mph 87% 0.00 in 0 W/m2
23:54 37.3 °F 34.6 °F 30.30 in NE 0.2 mph 2 mph 87% 0.00 in 0 W/m2
23:59 37.4 °F 34.7 °F 30.30 in Calm   2 mph 87% 0.00 in 0 W/m2
Bath Spa Weather
Compliments of Weather Underground - 2 mb